sensor_id;sensor_type;location;lat;lon;timestamp;temperature;humidity
16728;DHT22;8482;54.396;18.590;2023-10-09T00:02:22;9.40;99.90
16728;DHT22;8482;54.396;18.590;2023-10-09T00:04:48;9.40;99.90
16728;DHT22;8482;54.396;18.590;2023-10-09T00:07:17;9.40;99.90
16728;DHT22;8482;54.396;18.590;2023-10-09T00:09:43;9.50;99.90
16728;DHT22;8482;54.396;18.590;2023-10-09T00:12:16;9.40;99.90
16728;DHT22;8482;54.396;18.590;2023-10-09T00:14:51;9.40;99.90
16728;DHT22;8482;54.396;18.590;2023-10-09T00:17:21;9.40;99.90
16728;DHT22;8482;54.396;18.590;2023-10-09T00:19:48;9.40;99.90
16728;DHT22;8482;54.396;18.590;2023-10-09T00:22:15;9.40;99.90
16728;DHT22;8482;54.396;18.590;2023-10-09T00:24:50;9.40;99.90
16728;DHT22;8482;54.396;18.590;2023-10-09T00:27:35;9.40;99.90
16728;DHT22;8482;54.396;18.590;2023-10-09T00:30:02;9.40;99.90
16728;DHT22;8482;54.396;18.590;2023-10-09T00:32:31;9.40;99.90
16728;DHT22;8482;54.396;18.590;2023-10-09T00:34:58;9.40;99.90
16728;DHT22;8482;54.396;18.590;2023-10-09T00:37:44;9.40;99.90
16728;DHT22;8482;54.396;18.590;2023-10-09T00:40:11;9.40;99.90
16728;DHT22;8482;54.396;18.590;2023-10-09T00:42:48;9.40;99.90
16728;DHT22;8482;54.396;18.590;2023-10-09T00:45:14;9.40;99.90
16728;DHT22;8482;54.396;18.590;2023-10-09T00:47:52;9.40;99.90
16728;DHT22;8482;54.396;18.590;2023-10-09T00:50:23;9.40;99.90
16728;DHT22;8482;54.396;18.590;2023-10-09T00:52:53;9.40;99.90
16728;DHT22;8482;54.396;18.590;2023-10-09T00:55:32;9.40;99.90
16728;DHT22;8482;54.396;18.590;2023-10-09T00:58:15;9.40;99.90
16728;DHT22;8482;54.396;18.590;2023-10-09T01:00:50;9.40;99.90
16728;DHT22;8482;54.396;18.590;2023-10-09T01:03:19;9.40;99.90
16728;DHT22;8482;54.396;18.590;2023-10-09T01:05:51;9.40;99.90
16728;DHT22;8482;54.396;18.590;2023-10-09T01:08:35;9.50;99.90
16728;DHT22;8482;54.396;18.590;2023-10-09T01:11:15;9.40;99.90
16728;DHT22;8482;54.396;18.590;2023-10-09T01:13:49;9.40;99.90
16728;DHT22;8482;54.396;18.590;2023-10-09T01:16:20;9.40;99.90
16728;DHT22;8482;54.396;18.590;2023-10-09T01:18:55;9.40;99.90
16728;DHT22;8482;54.396;18.590;2023-10-09T01:21:24;9.30;99.90
16728;DHT22;8482;54.396;18.590;2023-10-09T01:23:55;9.30;99.90
16728;DHT22;8482;54.396;18.590;2023-10-09T01:26:43;9.30;99.90
16728;DHT22;8482;54.396;18.590;2023-10-09T01:29:20;9.30;99.90
16728;DHT22;8482;54.396;18.590;2023-10-09T01:31:51;9.30;99.90
16728;DHT22;8482;54.396;18.590;2023-10-09T01:36:59;9.30;99.90
16728;DHT22;8482;54.396;18.590;2023-10-09T01:39:25;9.30;99.90
16728;DHT22;8482;54.396;18.590;2023-10-09T01:42:05;9.30;99.90
16728;DHT22;8482;54.396;18.590;2023-10-09T01:44:32;9.30;99.90
16728;DHT22;8482;54.396;18.590;2023-10-09T01:47:06;9.30;99.90
16728;DHT22;8482;54.396;18.590;2023-10-09T01:49:39;9.30;99.90
16728;DHT22;8482;54.396;18.590;2023-10-09T01:52:12;9.30;99.90
16728;DHT22;8482;54.396;18.590;2023-10-09T01:54:50;9.20;99.90
16728;DHT22;8482;54.396;18.590;2023-10-09T01:57:18;9.20;99.90
16728;DHT22;8482;54.396;18.590;2023-10-09T01:59:49;9.30;99.90
16728;DHT22;8482;54.396;18.590;2023-10-09T02:02:20;9.20;99.90
16728;DHT22;8482;54.396;18.590;2023-10-09T02:04:57;9.20;99.90
16728;DHT22;8482;54.396;18.590;2023-10-09T02:07:37;9.20;99.90
16728;DHT22;8482;54.396;18.590;2023-10-09T02:10:15;9.30;99.90
16728;DHT22;8482;54.396;18.590;2023-10-09T02:13:00;9.20;99.90
16728;DHT22;8482;54.396;18.590;2023-10-09T02:15:39;9.20;99.90
16728;DHT22;8482;54.396;18.590;2023-10-09T02:18:15;9.20;99.90
16728;DHT22;8482;54.396;18.590;2023-10-09T02:20:49;9.20;99.90
16728;DHT22;8482;54.396;18.590;2023-10-09T02:23:38;9.20;99.90
16728;DHT22;8482;54.396;18.590;2023-10-09T02:26:07;9.20;99.90
16728;DHT22;8482;54.396;18.590;2023-10-09T02:28:35;9.20;99.90
16728;DHT22;8482;54.396;18.590;2023-10-09T02:31:11;9.20;99.90
16728;DHT22;8482;54.396;18.590;2023-10-09T02:33:38;9.20;99.90
16728;DHT22;8482;54.396;18.590;2023-10-09T02:36:08;9.20;99.90
16728;DHT22;8482;54.396;18.590;2023-10-09T02:38:35;9.20;99.90
16728;DHT22;8482;54.396;18.590;2023-10-09T02:41:06;9.20;99.90
16728;DHT22;8482;54.396;18.590;2023-10-09T02:43:35;9.20;99.90
16728;DHT22;8482;54.396;18.590;2023-10-09T02:46:11;9.20;99.90
16728;DHT22;8482;54.396;18.590;2023-10-09T02:48:45;9.20;99.90
16728;DHT22;8482;54.396;18.590;2023-10-09T02:51:18;9.20;99.90
16728;DHT22;8482;54.396;18.590;2023-10-09T02:54:08;9.20;99.90
16728;DHT22;8482;54.396;18.590;2023-10-09T02:56:51;9.10;99.90
16728;DHT22;8482;54.396;18.590;2023-10-09T02:59:32;9.20;99.90
16728;DHT22;8482;54.396;18.590;2023-10-09T03:01:59;9.20;99.90
16728;DHT22;8482;54.396;18.590;2023-10-09T03:04:29;9.10;99.90
16728;DHT22;8482;54.396;18.590;2023-10-09T03:06:55;9.20;99.90
16728;DHT22;8482;54.396;18.590;2023-10-09T03:09:23;9.10;99.90
16728;DHT22;8482;54.396;18.590;2023-10-09T03:11:58;9.20;99.90
16728;DHT22;8482;54.396;18.590;2023-10-09T03:14:28;9.20;99.90
16728;DHT22;8482;54.396;18.590;2023-10-09T03:16:56;9.10;99.90
16728;DHT22;8482;54.396;18.590;2023-10-09T03:19:25;9.10;99.90
16728;DHT22;8482;54.396;18.590;2023-10-09T03:21:57;9.10;99.90
16728;DHT22;8482;54.396;18.590;2023-10-09T03:24:26;9.10;99.90
16728;DHT22;8482;54.396;18.590;2023-10-09T03:26:56;9.10;99.90
16728;DHT22;8482;54.396;18.590;2023-10-09T03:29:23;9.10;99.90
16728;DHT22;8482;54.396;18.590;2023-10-09T03:31:50;9.10;99.90
16728;DHT22;8482;54.396;18.590;2023-10-09T03:34:17;9.10;99.90
16728;DHT22;8482;54.396;18.590;2023-10-09T03:36:45;9.10;99.90
16728;DHT22;8482;54.396;18.590;2023-10-09T03:39:13;9.10;99.90
16728;DHT22;8482;54.396;18.590;2023-10-09T03:41:58;9.10;99.90
16728;DHT22;8482;54.396;18.590;2023-10-09T03:44:24;9.10;99.90
16728;DHT22;8482;54.396;18.590;2023-10-09T03:46:54;9.10;99.90
16728;DHT22;8482;54.396;18.590;2023-10-09T03:49:20;9.10;99.90
16728;DHT22;8482;54.396;18.590;2023-10-09T03:51:51;9.00;99.90
16728;DHT22;8482;54.396;18.590;2023-10-09T03:54:18;9.00;99.90
16728;DHT22;8482;54.396;18.590;2023-10-09T03:56:50;9.00;99.90
16728;DHT22;8482;54.396;18.590;2023-10-09T03:59:21;9.00;99.90
16728;DHT22;8482;54.396;18.590;2023-10-09T04:01:47;9.00;99.90
16728;DHT22;8482;54.396;18.590;2023-10-09T04:04:19;9.00;99.90
16728;DHT22;8482;54.396;18.590;2023-10-09T04:06:48;9.00;99.90
16728;DHT22;8482;54.396;18.590;2023-10-09T04:09:17;9.00;99.90
16728;DHT22;8482;54.396;18.590;2023-10-09T04:11:50;9.00;99.90
16728;DHT22;8482;54.396;18.590;2023-10-09T04:14:47;9.00;99.90
16728;DHT22;8482;54.396;18.590;2023-10-09T04:17:20;9.00;99.90
16728;DHT22;8482;54.396;18.590;2023-10-09T04:20:00;9.00;99.90
16728;DHT22;8482;54.396;18.590;2023-10-09T04:22:44;9.00;99.90
16728;DHT22;8482;54.396;18.590;2023-10-09T04:25:17;9.00;99.90
16728;DHT22;8482;54.396;18.590;2023-10-09T04:27:55;9.00;99.90
16728;DHT22;8482;54.396;18.590;2023-10-09T04:30:35;9.00;99.90
16728;DHT22;8482;54.396;18.590;2023-10-09T04:33:09;9.00;99.90
16728;DHT22;8482;54.396;18.590;2023-10-09T04:36:04;9.00;99.90
16728;DHT22;8482;54.396;18.590;2023-10-09T04:38:51;9.00;99.90
16728;DHT22;8482;54.396;18.590;2023-10-09T04:41:32;9.00;99.90
16728;DHT22;8482;54.396;18.590;2023-10-09T04:44:08;9.10;99.90
16728;DHT22;8482;54.396;18.590;2023-10-09T04:46:43;9.00;99.90
16728;DHT22;8482;54.396;18.590;2023-10-09T04:49:13;9.10;99.90
16728;DHT22;8482;54.396;18.590;2023-10-09T04:51:53;9.10;99.90
16728;DHT22;8482;54.396;18.590;2023-10-09T04:54:34;9.10;99.90
16728;DHT22;8482;54.396;18.590;2023-10-09T04:57:26;9.10;99.90
16728;DHT22;8482;54.396;18.590;2023-10-09T04:59:52;9.10;99.90
16728;DHT22;8482;54.396;18.590;2023-10-09T05:02:24;9.10;99.90
16728;DHT22;8482;54.396;18.590;2023-10-09T05:04:50;9.10;99.90
16728;DHT22;8482;54.396;18.590;2023-10-09T05:07:38;9.10;99.90
16728;DHT22;8482;54.396;18.590;2023-10-09T05:10:22;9.10;99.90
16728;DHT22;8482;54.396;18.590;2023-10-09T05:12:51;9.10;99.90
16728;DHT22;8482;54.396;18.590;2023-10-09T05:15:23;9.10;99.90
16728;DHT22;8482;54.396;18.590;2023-10-09T05:17:55;9.10;99.90
16728;DHT22;8482;54.396;18.590;2023-10-09T05:20:35;9.10;99.90
16728;DHT22;8482;54.396;18.590;2023-10-09T05:23:21;9.10;99.90
16728;DHT22;8482;54.396;18.590;2023-10-09T05:25:51;9.10;99.90
16728;DHT22;8482;54.396;18.590;2023-10-09T05:28:21;9.10;99.90
16728;DHT22;8482;54.396;18.590;2023-10-09T05:30:51;9.10;99.90
16728;DHT22;8482;54.396;18.590;2023-10-09T05:33:50;9.10;99.90
16728;DHT22;8482;54.396;18.590;2023-10-09T05:36:18;9.10;99.90
16728;DHT22;8482;54.396;18.590;2023-10-09T05:38:50;9.10;99.90
16728;DHT22;8482;54.396;18.590;2023-10-09T05:41:45;9.20;99.90
16728;DHT22;8482;54.396;18.590;2023-10-09T05:44:13;9.20;99.90
16728;DHT22;8482;54.396;18.590;2023-10-09T05:46:58;9.20;99.90
16728;DHT22;8482;54.396;18.590;2023-10-09T05:49:43;9.20;99.90
16728;DHT22;8482;54.396;18.590;2023-10-09T05:52:12;9.30;99.90
16728;DHT22;8482;54.396;18.590;2023-10-09T05:54:57;9.30;99.90
16728;DHT22;8482;54.396;18.590;2023-10-09T05:57:35;9.30;99.90
16728;DHT22;8482;54.396;18.590;2023-10-09T06:00:19;9.30;99.90
16728;DHT22;8482;54.396;18.590;2023-10-09T06:03:03;9.30;99.90
16728;DHT22;8482;54.396;18.590;2023-10-09T06:05:54;9.30;99.90
16728;DHT22;8482;54.396;18.590;2023-10-09T06:08:28;9.30;99.90
16728;DHT22;8482;54.396;18.590;2023-10-09T06:11:09;9.40;99.90
16728;DHT22;8482;54.396;18.590;2023-10-09T06:13:58;9.40;99.90
16728;DHT22;8482;54.396;18.590;2023-10-09T06:16:39;9.40;99.90
16728;DHT22;8482;54.396;18.590;2023-10-09T06:19:16;9.40;99.90
16728;DHT22;8482;54.396;18.590;2023-10-09T06:21:47;9.40;99.90
16728;DHT22;8482;54.396;18.590;2023-10-09T06:24:36;9.40;99.90
16728;DHT22;8482;54.396;18.590;2023-10-09T06:27:22;9.50;99.90
16728;DHT22;8482;54.396;18.590;2023-10-09T06:29:58;9.50;99.90
16728;DHT22;8482;54.396;18.590;2023-10-09T06:32:49;9.50;99.90
16728;DHT22;8482;54.396;18.590;2023-10-09T06:35:34;9.50;99.90
16728;DHT22;8482;54.396;18.590;2023-10-09T06:38:01;9.60;99.90
16728;DHT22;8482;54.396;18.590;2023-10-09T06:43:12;9.60;99.90
16728;DHT22;8482;54.396;18.590;2023-10-09T06:45:51;9.70;99.90
16728;DHT22;8482;54.396;18.590;2023-10-09T06:48:27;9.80;99.90
16728;DHT22;8482;54.396;18.590;2023-10-09T06:51:09;9.80;99.90
16728;DHT22;8482;54.396;18.590;2023-10-09T06:53:55;9.80;99.90
16728;DHT22;8482;54.396;18.590;2023-10-09T06:56:29;9.90;99.90
16728;DHT22;8482;54.396;18.590;2023-10-09T07:01:25;10.00;99.90
16728;DHT22;8482;54.396;18.590;2023-10-09T07:03:55;10.00;99.90
16728;DHT22;8482;54.396;18.590;2023-10-09T07:06:47;10.10;99.90
16728;DHT22;8482;54.396;18.590;2023-10-09T07:09:15;10.10;99.90
16728;DHT22;8482;54.396;18.590;2023-10-09T07:11:48;10.20;99.90
16728;DHT22;8482;54.396;18.590;2023-10-09T07:14:21;10.20;99.90
16728;DHT22;8482;54.396;18.590;2023-10-09T07:16:57;10.20;99.90
16728;DHT22;8482;54.396;18.590;2023-10-09T07:19:30;10.20;99.90
16728;DHT22;8482;54.396;18.590;2023-10-09T07:22:00;10.30;99.90
16728;DHT22;8482;54.396;18.590;2023-10-09T07:24:41;10.30;99.90
16728;DHT22;8482;54.396;18.590;2023-10-09T07:27:17;10.30;99.90
16728;DHT22;8482;54.396;18.590;2023-10-09T07:29:43;10.30;99.90
16728;DHT22;8482;54.396;18.590;2023-10-09T07:32:15;10.40;99.90
16728;DHT22;8482;54.396;18.590;2023-10-09T07:34:48;10.40;99.90
16728;DHT22;8482;54.396;18.590;2023-10-09T07:37:26;10.40;99.90
16728;DHT22;8482;54.396;18.590;2023-10-09T07:40:03;10.40;99.90
16728;DHT22;8482;54.396;18.590;2023-10-09T07:42:34;10.50;99.90
16728;DHT22;8482;54.396;18.590;2023-10-09T07:45:06;10.50;99.90
16728;DHT22;8482;54.396;18.590;2023-10-09T07:48:01;10.60;99.90
16728;DHT22;8482;54.396;18.590;2023-10-09T07:50:38;10.60;99.90
16728;DHT22;8482;54.396;18.590;2023-10-09T07:53:14;10.70;99.90
16728;DHT22;8482;54.396;18.590;2023-10-09T07:55:44;10.70;99.90
16728;DHT22;8482;54.396;18.590;2023-10-09T07:58:27;10.80;99.90
16728;DHT22;8482;54.396;18.590;2023-10-09T08:00:55;10.80;99.90
16728;DHT22;8482;54.396;18.590;2023-10-09T08:03:47;10.80;99.90
16728;DHT22;8482;54.396;18.590;2023-10-09T08:06:24;10.90;99.90
16728;DHT22;8482;54.396;18.590;2023-10-09T08:09:06;10.90;99.90
16728;DHT22;8482;54.396;18.590;2023-10-09T08:11:43;10.90;99.90
16728;DHT22;8482;54.396;18.590;2023-10-09T08:14:13;11.00;99.90
16728;DHT22;8482;54.396;18.590;2023-10-09T08:16:59;11.00;99.90
16728;DHT22;8482;54.396;18.590;2023-10-09T08:19:47;11.10;99.90
16728;DHT22;8482;54.396;18.590;2023-10-09T08:22:27;11.10;99.90
16728;DHT22;8482;54.396;18.590;2023-10-09T08:24:55;11.20;99.90
16728;DHT22;8482;54.396;18.590;2023-10-09T08:27:28;11.30;99.90
16728;DHT22;8482;54.396;18.590;2023-10-09T08:30:06;11.30;99.90
16728;DHT22;8482;54.396;18.590;2023-10-09T08:32:45;11.30;99.90
16728;DHT22;8482;54.396;18.590;2023-10-09T08:35:33;11.40;99.90
16728;DHT22;8482;54.396;18.590;2023-10-09T08:38:01;11.40;99.90
16728;DHT22;8482;54.396;18.590;2023-10-09T08:40:35;11.50;99.90
16728;DHT22;8482;54.396;18.590;2023-10-09T08:43:19;11.50;99.90
16728;DHT22;8482;54.396;18.590;2023-10-09T08:45:52;11.60;99.90
16728;DHT22;8482;54.396;18.590;2023-10-09T08:48:22;11.60;99.90
16728;DHT22;8482;54.396;18.590;2023-10-09T08:50:52;11.60;99.90
16728;DHT22;8482;54.396;18.590;2023-10-09T08:53:22;11.70;99.90
16728;DHT22;8482;54.396;18.590;2023-10-09T08:55:58;11.70;99.90
16728;DHT22;8482;54.396;18.590;2023-10-09T08:58:24;11.70;99.90
16728;DHT22;8482;54.396;18.590;2023-10-09T09:00:52;11.80;99.90
16728;DHT22;8482;54.396;18.590;2023-10-09T09:03:21;11.90;99.90
16728;DHT22;8482;54.396;18.590;2023-10-09T09:05:58;11.90;99.90
16728;DHT22;8482;54.396;18.590;2023-10-09T09:08:30;12.00;99.90
16728;DHT22;8482;54.396;18.590;2023-10-09T09:11:02;12.00;99.90
16728;DHT22;8482;54.396;18.590;2023-10-09T09:14:05;12.10;99.80
16728;DHT22;8482;54.396;18.590;2023-10-09T09:16:44;12.20;99.50
16728;DHT22;8482;54.396;18.590;2023-10-09T09:19:14;12.30;99.40
16728;DHT22;8482;54.396;18.590;2023-10-09T09:21:48;12.40;99.30
16728;DHT22;8482;54.396;18.590;2023-10-09T09:24:25;12.40;99.00
16728;DHT22;8482;54.396;18.590;2023-10-09T09:27:09;12.50;98.80
16728;DHT22;8482;54.396;18.590;2023-10-09T09:32:13;12.60;98.70
16728;DHT22;8482;54.396;18.590;2023-10-09T09:34:50;12.60;98.10
16728;DHT22;8482;54.396;18.590;2023-10-09T09:37:25;12.70;98.10
16728;DHT22;8482;54.396;18.590;2023-10-09T09:40:01;12.80;98.10
16728;DHT22;8482;54.396;18.590;2023-10-09T09:42:42;12.80;98.10
16728;DHT22;8482;54.396;18.590;2023-10-09T09:45:14;12.90;98.20
16728;DHT22;8482;54.396;18.590;2023-10-09T09:47:43;12.90;97.90
16728;DHT22;8482;54.396;18.590;2023-10-09T09:50:17;12.90;97.80
16728;DHT22;8482;54.396;18.590;2023-10-09T09:52:54;13.00;97.60
16728;DHT22;8482;54.396;18.590;2023-10-09T09:55:29;13.10;97.30
16728;DHT22;8482;54.396;18.590;2023-10-09T09:58:00;13.10;97.20
16728;DHT22;8482;54.396;18.590;2023-10-09T10:00:33;13.10;97.00
16728;DHT22;8482;54.396;18.590;2023-10-09T10:03:12;13.10;96.60
16728;DHT22;8482;54.396;18.590;2023-10-09T10:05:45;13.20;96.30
16728;DHT22;8482;54.396;18.590;2023-10-09T10:08:21;13.20;95.90
16728;DHT22;8482;54.396;18.590;2023-10-09T10:10:56;13.20;95.90
16728;DHT22;8482;54.396;18.590;2023-10-09T10:16:10;13.30;95.80
16728;DHT22;8482;54.396;18.590;2023-10-09T10:21:35;13.40;95.20
16728;DHT22;8482;54.396;18.590;2023-10-09T10:32:56;13.60;93.90
16728;DHT22;8482;54.396;18.590;2023-10-09T10:35:24;13.60;93.90
16728;DHT22;8482;54.396;18.590;2023-10-09T10:38:27;13.70;93.70
16728;DHT22;8482;54.396;18.590;2023-10-09T10:41:16;13.70;93.20
16728;DHT22;8482;54.396;18.590;2023-10-09T10:43:44;13.80;93.10
16728;DHT22;8482;54.396;18.590;2023-10-09T10:46:23;13.80;93.10
16728;DHT22;8482;54.396;18.590;2023-10-09T10:48:55;13.90;93.20
16728;DHT22;8482;54.396;18.590;2023-10-09T10:51:51;14.00;92.60
16728;DHT22;8482;54.396;18.590;2023-10-09T10:54:37;14.10;92.10
16728;DHT22;8482;54.396;18.590;2023-10-09T10:57:03;14.00;91.60
16728;DHT22;8482;54.396;18.590;2023-10-09T10:59:45;14.00;91.50
16728;DHT22;8482;54.396;18.590;2023-10-09T11:02:12;14.10;91.50
16728;DHT22;8482;54.396;18.590;2023-10-09T11:04:38;14.10;91.40
16728;DHT22;8482;54.396;18.590;2023-10-09T11:07:06;14.20;91.50
16728;DHT22;8482;54.396;18.590;2023-10-09T11:10:10;14.20;91.10
16728;DHT22;8482;54.396;18.590;2023-10-09T11:12:46;14.20;90.70
16728;DHT22;8482;54.396;18.590;2023-10-09T11:15:39;14.20;90.70
16728;DHT22;8482;54.396;18.590;2023-10-09T11:18:15;14.30;90.90
16728;DHT22;8482;54.396;18.590;2023-10-09T11:20:57;14.30;90.80
16728;DHT22;8482;54.396;18.590;2023-10-09T11:23:30;14.30;90.50
16728;DHT22;8482;54.396;18.590;2023-10-09T11:26:01;14.40;90.40
16728;DHT22;8482;54.396;18.590;2023-10-09T11:29:13;14.40;90.00
16728;DHT22;8482;54.396;18.590;2023-10-09T11:32:17;14.50;89.60
16728;DHT22;8482;54.396;18.590;2023-10-09T11:34:47;14.50;89.30
16728;DHT22;8482;54.396;18.590;2023-10-09T11:37:24;14.60;88.80
16728;DHT22;8482;54.396;18.590;2023-10-09T11:39:56;14.60;88.00
16728;DHT22;8482;54.396;18.590;2023-10-09T11:42:24;14.70;87.40
16728;DHT22;8482;54.396;18.590;2023-10-09T11:45:04;14.70;86.70
16728;DHT22;8482;54.396;18.590;2023-10-09T11:47:50;14.70;85.90
16728;DHT22;8482;54.396;18.590;2023-10-09T11:53:16;14.90;85.20
16728;DHT22;8482;54.396;18.590;2023-10-09T11:56:02;14.90;84.60
16728;DHT22;8482;54.396;18.590;2023-10-09T11:58:28;15.00;84.10
16728;DHT22;8482;54.396;18.590;2023-10-09T12:00:57;15.10;84.30
16728;DHT22;8482;54.396;18.590;2023-10-09T12:03:31;15.10;84.20
16728;DHT22;8482;54.396;18.590;2023-10-09T12:06:02;15.20;83.90
16728;DHT22;8482;54.396;18.590;2023-10-09T12:08:34;15.20;83.40
16728;DHT22;8482;54.396;18.590;2023-10-09T12:11:01;15.20;83.10
16728;DHT22;8482;54.396;18.590;2023-10-09T12:13:28;15.30;82.50
16728;DHT22;8482;54.396;18.590;2023-10-09T12:15:54;15.30;82.30
16728;DHT22;8482;54.396;18.590;2023-10-09T12:18:21;15.30;81.80
16728;DHT22;8482;54.396;18.590;2023-10-09T12:20:50;15.30;81.70
16728;DHT22;8482;54.396;18.590;2023-10-09T12:23:18;15.40;81.90
16728;DHT22;8482;54.396;18.590;2023-10-09T12:25:45;15.40;81.20
16728;DHT22;8482;54.396;18.590;2023-10-09T12:28:11;15.40;80.90
16728;DHT22;8482;54.396;18.590;2023-10-09T12:30:38;15.40;80.50
16728;DHT22;8482;54.396;18.590;2023-10-09T12:33:08;15.40;80.00
16728;DHT22;8482;54.396;18.590;2023-10-09T12:35:41;15.40;79.90
16728;DHT22;8482;54.396;18.590;2023-10-09T12:38:07;15.40;80.20
16728;DHT22;8482;54.396;18.590;2023-10-09T12:40:38;15.40;80.30
16728;DHT22;8482;54.396;18.590;2023-10-09T12:43:07;15.40;79.90
16728;DHT22;8482;54.396;18.590;2023-10-09T12:45:42;15.40;79.60
16728;DHT22;8482;54.396;18.590;2023-10-09T12:48:08;15.50;79.70
16728;DHT22;8482;54.396;18.590;2023-10-09T12:50:38;15.50;79.10
16728;DHT22;8482;54.396;18.590;2023-10-09T12:53:11;15.50;79.10
16728;DHT22;8482;54.396;18.590;2023-10-09T12:55:42;15.50;78.80
16728;DHT22;8482;54.396;18.590;2023-10-09T12:58:09;15.60;78.60
16728;DHT22;8482;54.396;18.590;2023-10-09T13:00:40;15.60;78.90
16728;DHT22;8482;54.396;18.590;2023-10-09T13:03:14;15.70;79.00
16728;DHT22;8482;54.396;18.590;2023-10-09T13:05:53;15.70;79.00
16728;DHT22;8482;54.396;18.590;2023-10-09T13:08:23;15.70;79.70
16728;DHT22;8482;54.396;18.590;2023-10-09T13:11:01;15.70;79.40
16728;DHT22;8482;54.396;18.590;2023-10-09T13:13:39;15.80;78.90
16728;DHT22;8482;54.396;18.590;2023-10-09T13:16:19;15.80;79.30
16728;DHT22;8482;54.396;18.590;2023-10-09T13:18:49;15.80;78.70
16728;DHT22;8482;54.396;18.590;2023-10-09T13:21:27;15.90;78.30
16728;DHT22;8482;54.396;18.590;2023-10-09T13:24:00;15.90;77.90
16728;DHT22;8482;54.396;18.590;2023-10-09T13:26:29;15.90;77.40
16728;DHT22;8482;54.396;18.590;2023-10-09T13:28:58;15.90;77.00
16728;DHT22;8482;54.396;18.590;2023-10-09T13:31:26;15.90;76.80
16728;DHT22;8482;54.396;18.590;2023-10-09T13:33:53;15.90;76.50
16728;DHT22;8482;54.396;18.590;2023-10-09T13:36:24;15.80;76.40
16728;DHT22;8482;54.396;18.590;2023-10-09T13:39:00;15.80;76.20
16728;DHT22;8482;54.396;18.590;2023-10-09T13:41:47;15.70;76.20
16728;DHT22;8482;54.396;18.590;2023-10-09T13:44:15;15.70;76.10
16728;DHT22;8482;54.396;18.590;2023-10-09T13:46:41;15.70;76.70
16728;DHT22;8482;54.396;18.590;2023-10-09T13:49:11;15.70;77.20
16728;DHT22;8482;54.396;18.590;2023-10-09T13:51:41;15.60;77.50
16728;DHT22;8482;54.396;18.590;2023-10-09T13:54:13;15.60;77.60
16728;DHT22;8482;54.396;18.590;2023-10-09T13:57:04;15.60;77.70
16728;DHT22;8482;54.396;18.590;2023-10-09T13:59:32;15.50;77.50
16728;DHT22;8482;54.396;18.590;2023-10-09T14:02:00;15.40;77.40
16728;DHT22;8482;54.396;18.590;2023-10-09T14:04:28;15.40;77.60
16728;DHT22;8482;54.396;18.590;2023-10-09T14:06:54;15.40;77.80
16728;DHT22;8482;54.396;18.590;2023-10-09T14:09:25;15.30;78.00
16728;DHT22;8482;54.396;18.590;2023-10-09T14:12:05;15.20;78.30
16728;DHT22;8482;54.396;18.590;2023-10-09T14:14:40;15.20;78.50
16728;DHT22;8482;54.396;18.590;2023-10-09T14:17:14;15.20;78.90
16728;DHT22;8482;54.396;18.590;2023-10-09T14:19:57;15.10;78.80
16728;DHT22;8482;54.396;18.590;2023-10-09T14:22:46;15.10;78.70
16728;DHT22;8482;54.396;18.590;2023-10-09T14:25:17;15.10;78.90
16728;DHT22;8482;54.396;18.590;2023-10-09T14:27:46;15.00;78.60
16728;DHT22;8482;54.396;18.590;2023-10-09T14:30:13;15.00;78.90
16728;DHT22;8482;54.396;18.590;2023-10-09T14:32:48;15.00;79.30
16728;DHT22;8482;54.396;18.590;2023-10-09T14:35:21;15.00;79.30
16728;DHT22;8482;54.396;18.590;2023-10-09T14:37:52;15.00;79.70
16728;DHT22;8482;54.396;18.590;2023-10-09T14:40:19;15.10;80.30
16728;DHT22;8482;54.396;18.590;2023-10-09T14:42:56;15.00;80.10
16728;DHT22;8482;54.396;18.590;2023-10-09T14:45:24;15.00;79.90
16728;DHT22;8482;54.396;18.590;2023-10-09T14:47:52;15.00;80.30
16728;DHT22;8482;54.396;18.590;2023-10-09T14:50:20;14.90;81.30
16728;DHT22;8482;54.396;18.590;2023-10-09T14:52:50;14.90;80.70
16728;DHT22;8482;54.396;18.590;2023-10-09T14:55:16;14.90;80.80
16728;DHT22;8482;54.396;18.590;2023-10-09T14:57:54;14.80;80.90
16728;DHT22;8482;54.396;18.590;2023-10-09T15:00:20;14.80;81.20
16728;DHT22;8482;54.396;18.590;2023-10-09T15:02:50;14.70;81.60
16728;DHT22;8482;54.396;18.590;2023-10-09T15:05:16;14.70;82.10
16728;DHT22;8482;54.396;18.590;2023-10-09T15:07:42;14.60;82.40
16728;DHT22;8482;54.396;18.590;2023-10-09T15:10:09;14.60;82.90
16728;DHT22;8482;54.396;18.590;2023-10-09T15:12:35;14.50;83.10
16728;DHT22;8482;54.396;18.590;2023-10-09T15:15:06;14.40;83.40
16728;DHT22;8482;54.396;18.590;2023-10-09T15:17:39;14.40;83.50
16728;DHT22;8482;54.396;18.590;2023-10-09T15:20:14;14.30;83.60
16728;DHT22;8482;54.396;18.590;2023-10-09T15:22:41;14.30;84.30
16728;DHT22;8482;54.396;18.590;2023-10-09T15:25:08;14.30;85.10
16728;DHT22;8482;54.396;18.590;2023-10-09T15:27:34;14.20;85.50
16728;DHT22;8482;54.396;18.590;2023-10-09T15:30:00;14.20;85.70
16728;DHT22;8482;54.396;18.590;2023-10-09T15:32:26;14.10;85.90
16728;DHT22;8482;54.396;18.590;2023-10-09T15:34:56;14.10;86.00
16728;DHT22;8482;54.396;18.590;2023-10-09T15:37:25;14.00;86.40
16728;DHT22;8482;54.396;18.590;2023-10-09T15:39:50;14.00;86.90
16728;DHT22;8482;54.396;18.590;2023-10-09T15:42:16;13.90;87.20
16728;DHT22;8482;54.396;18.590;2023-10-09T15:44:42;13.90;87.90
16728;DHT22;8482;54.396;18.590;2023-10-09T15:47:13;13.90;88.60
16728;DHT22;8482;54.396;18.590;2023-10-09T15:49:41;13.80;89.90
16728;DHT22;8482;54.396;18.590;2023-10-09T15:52:10;13.80;90.30
16728;DHT22;8482;54.396;18.590;2023-10-09T15:54:40;13.70;90.50
16728;DHT22;8482;54.396;18.590;2023-10-09T15:57:09;13.70;90.80
16728;DHT22;8482;54.396;18.590;2023-10-09T15:59:38;13.60;91.00
16728;DHT22;8482;54.396;18.590;2023-10-09T16:02:04;13.60;91.50
16728;DHT22;8482;54.396;18.590;2023-10-09T16:04:31;13.50;91.90
16728;DHT22;8482;54.396;18.590;2023-10-09T16:07:00;13.50;92.10
16728;DHT22;8482;54.396;18.590;2023-10-09T16:09:30;13.40;92.30
16728;DHT22;8482;54.396;18.590;2023-10-09T16:12:00;13.40;92.60
16728;DHT22;8482;54.396;18.590;2023-10-09T16:14:26;13.30;92.90
16728;DHT22;8482;54.396;18.590;2023-10-09T16:16:52;13.20;93.40
16728;DHT22;8482;54.396;18.590;2023-10-09T16:19:21;13.10;93.90
16728;DHT22;8482;54.396;18.590;2023-10-09T16:21:49;13.10;94.50
16728;DHT22;8482;54.396;18.590;2023-10-09T16:24:18;13.00;94.80
16728;DHT22;8482;54.396;18.590;2023-10-09T16:26:45;12.90;95.20
16728;DHT22;8482;54.396;18.590;2023-10-09T16:29:17;12.80;95.40
16728;DHT22;8482;54.396;18.590;2023-10-09T16:31:42;12.80;95.50
16728;DHT22;8482;54.396;18.590;2023-10-09T16:34:08;12.70;95.80
16728;DHT22;8482;54.396;18.590;2023-10-09T16:36:34;12.60;96.00
16728;DHT22;8482;54.396;18.590;2023-10-09T16:39:05;12.60;96.20
16728;DHT22;8482;54.396;18.590;2023-10-09T16:41:45;12.50;96.40
16728;DHT22;8482;54.396;18.590;2023-10-09T16:44:11;12.40;96.70
16728;DHT22;8482;54.396;18.590;2023-10-09T16:46:42;12.40;97.00
16728;DHT22;8482;54.396;18.590;2023-10-09T16:49:12;12.30;97.20